createdAt,value
2019-05-09T00:00:33.529Z,46.60
2019-05-09T00:03:03.490Z,46.60
2019-05-09T00:05:33.468Z,46.70
2019-05-09T00:08:03.506Z,46.60
2019-05-09T00:10:39.516Z,46.60
2019-05-09T00:13:03.385Z,46.60
2019-05-09T00:15:33.320Z,46.40
2019-05-09T00:18:03.938Z,46.30
2019-05-09T00:20:43.613Z,46.10
2019-05-09T00:23:13.522Z,46.40
2019-05-09T00:25:43.318Z,46.30
2019-05-09T00:28:13.521Z,46.30
2019-05-09T00:30:56.016Z,46.20
2019-05-09T00:33:34.588Z,46.30
2019-05-09T00:36:04.169Z,46.80
2019-05-09T00:38:37.389Z,46.40
2019-05-09T00:41:05.759Z,46.50
2019-05-09T00:43:34.308Z,46.70
2019-05-09T00:46:04.567Z,46.60
2019-05-09T00:48:46.308Z,46.50
2019-05-09T00:51:14.717Z,46.50
2019-05-09T00:53:44.391Z,46.50
2019-05-09T00:56:13.476Z,46.80
2019-05-09T00:58:43.936Z,46.90
2019-05-09T01:01:13.487Z,46.80
2019-05-09T01:03:43.243Z,46.90
2019-05-09T01:06:13.412Z,46.80
2019-05-09T01:08:44.056Z,47.00
2019-05-09T01:11:15.158Z,46.90
2019-05-09T01:13:43.474Z,46.90
2019-05-09T01:16:13.381Z,47.10
2019-05-09T01:18:43.772Z,47.00
2019-05-09T01:21:13.355Z,46.90
2019-05-09T01:23:43.662Z,47.00
2019-05-09T01:26:13.170Z,47.00
2019-05-09T01:28:44.069Z,46.90
2019-05-09T01:31:13.262Z,47.10
2019-05-09T01:33:55.746Z,47.10
2019-05-09T01:36:24.525Z,47.10
2019-05-09T01:38:53.928Z,47.00
2019-05-09T01:41:30.184Z,46.90
2019-05-09T01:43:53.687Z,47.00
2019-05-09T01:46:23.600Z,47.30
2019-05-09T01:48:53.975Z,48.00
2019-05-09T01:51:23.329Z,47.40
2019-05-09T01:53:53.655Z,47.10
2019-05-09T01:56:23.581Z,46.90
2019-05-09T01:58:53.897Z,47.10
2019-05-09T02:01:24.016Z,47.40
2019-05-09T02:03:53.757Z,47.40
2019-05-09T02:06:24.412Z,47.40
2019-05-09T02:08:54.458Z,47.30
2019-05-09T02:11:23.848Z,47.20
2019-05-09T02:13:53.548Z,47.20
2019-05-09T02:16:29.750Z,47.40
2019-05-09T02:19:14.872Z,47.50
2019-05-09T02:21:43.787Z,47.50
2019-05-09T02:24:14.141Z,47.40
2019-05-09T02:26:43.900Z,47.40
2019-05-09T02:29:13.889Z,47.40
2019-05-09T02:31:44.588Z,47.20
2019-05-09T02:34:14.959Z,47.20
2019-05-09T02:36:42.509Z,47.60
2019-05-09T02:39:10.928Z,47.70
2019-05-09T02:41:57.771Z,47.70
2019-05-09T02:44:09.547Z,48.00
2019-05-09T02:46:39.748Z,48.10
2019-05-09T02:49:09.022Z,48.10
2019-05-09T02:51:38.776Z,48.10
2019-05-09T02:54:09.903Z,48.20
2019-05-09T02:56:38.524Z,48.20
2019-05-09T02:59:11.779Z,48.20
2019-05-09T03:01:49.455Z,48.30
2019-05-09T03:04:18.852Z,48.30
2019-05-09T03:06:49.288Z,48.60
2019-05-09T03:09:19.025Z,48.50
2019-05-09T03:11:48.746Z,48.40
2019-05-09T03:14:19.430Z,48.20
2019-05-09T03:16:49.109Z,48.20
2019-05-09T03:19:19.397Z,48.30
2019-05-09T03:21:49.380Z,48.20
2019-05-09T03:24:18.689Z,48.10
2019-05-09T03:26:49.446Z,48.10
2019-05-09T03:29:39.382Z,48.50
2019-05-09T03:32:09.090Z,48.70
2019-05-09T03:34:37.290Z,48.70
2019-05-09T03:37:05.733Z,48.60
2019-05-09T03:39:34.113Z,48.80
2019-05-09T03:42:02.520Z,48.70
2019-05-09T03:44:30.902Z,48.80
2019-05-09T03:47:10.088Z,49.00
2019-05-09T03:49:38.480Z,49.00
2019-05-09T03:52:07.558Z,48.70
2019-05-09T03:54:37.533Z,48.70
2019-05-09T03:57:07.811Z,48.40
2019-05-09T03:59:38.129Z,48.50
2019-05-09T04:02:09.886Z,48.50
2019-05-09T04:04:38.249Z,48.20
2019-05-09T04:07:08.333Z,48.40
2019-05-09T04:09:37.547Z,48.60
2019-05-09T04:12:07.516Z,48.80
2019-05-09T04:14:37.631Z,48.80
2019-05-09T04:17:07.850Z,48.60
2019-05-09T04:19:38.022Z,48.50
2019-05-09T04:22:08.015Z,48.70
2019-05-09T04:24:38.234Z,48.50
2019-05-09T04:27:14.126Z,48.50
2019-05-09T04:29:42.511Z,48.70
2019-05-09T04:32:10.904Z,48.60
2019-05-09T04:34:39.324Z,48.60
2019-05-09T04:37:08.495Z,48.50
2019-05-09T04:39:38.653Z,48.20
2019-05-09T04:42:08.525Z,48.20
2019-05-09T04:44:41.652Z,48.20
2019-05-09T04:47:10.056Z,48.00
2019-05-09T04:49:40.837Z,48.00
2019-05-09T04:52:08.532Z,48.00
2019-05-09T04:54:38.431Z,48.20
2019-05-09T04:57:07.791Z,48.30
2019-05-09T04:59:37.357Z,48.40
2019-05-09T05:02:10.310Z,48.30
2019-05-09T05:04:38.711Z,48.40
2019-05-09T05:07:07.697Z,48.50
2019-05-09T05:09:37.958Z,48.30
2019-05-09T05:12:08.191Z,48.60
2019-05-09T05:14:38.264Z,48.50
2019-05-09T05:17:10.935Z,48.60
2019-05-09T05:19:38.326Z,48.50
2019-05-09T05:22:11.009Z,48.40
2019-05-09T05:24:43.738Z,48.30
2019-05-09T05:27:12.203Z,48.20
2019-05-09T05:29:40.678Z,48.20
2019-05-09T05:32:10.698Z,48.20
2019-05-09T05:34:40.721Z,48.20
2019-05-09T05:37:09.179Z,48.70
2019-05-09T05:39:37.701Z,47.80
2019-05-09T05:42:08.113Z,47.70
2019-05-09T05:44:38.394Z,47.80
2019-05-09T05:47:07.866Z,48.20
2019-05-09T05:49:38.417Z,48.10
2019-05-09T05:52:08.057Z,48.20
2019-05-09T05:54:37.883Z,48.00
2019-05-09T05:57:08.431Z,47.90
2019-05-09T05:59:40.399Z,47.50
2019-05-09T06:02:08.621Z,47.60
2019-05-09T06:04:38.147Z,47.60
2019-05-09T06:07:08.002Z,47.30
2019-05-09T06:09:37.888Z,46.90
2019-05-09T06:12:08.240Z,46.90
2019-05-09T06:14:37.862Z,46.90
2019-05-09T06:17:07.845Z,47.10
2019-05-09T06:19:37.984Z,46.90
2019-05-09T06:22:08.226Z,46.90
2019-05-09T06:24:38.690Z,46.60
2019-05-09T06:27:10.195Z,46.50
2019-05-09T06:29:38.642Z,46.90
2019-05-09T06:32:07.821Z,46.40
2019-05-09T06:34:41.674Z,46.30
2019-05-09T06:37:09.003Z,46.30
2019-05-09T06:39:37.791Z,46.50
2019-05-09T06:42:08.812Z,46.40
2019-05-09T06:44:38.072Z,46.60
2019-05-09T06:47:18.551Z,46.50
2019-05-09T06:49:54.709Z,46.40
2019-05-09T06:52:23.102Z,46.50
2019-05-09T06:54:51.497Z,46.10
2019-05-09T06:57:19.881Z,45.80
2019-05-09T06:59:48.749Z,45.90
2019-05-09T07:02:24.803Z,46.00
2019-05-09T07:04:54.827Z,45.70
2019-05-09T07:07:28.036Z,46.10
2019-05-09T07:09:58.744Z,45.60
2019-05-09T07:12:27.456Z,45.60
2019-05-09T07:14:57.947Z,45.90
2019-05-09T07:17:31.816Z,46.10
2019-05-09T07:19:58.724Z,45.20
2019-05-09T07:22:28.191Z,45.40
2019-05-09T07:25:06.429Z,44.60
2019-05-09T07:27:32.600Z,44.00
2019-05-09T07:30:07.559Z,44.20
2019-05-09T07:32:52.036Z,44.00
2019-05-09T07:35:20.443Z,44.20
2019-05-09T07:37:48.965Z,44.20
2019-05-09T07:40:18.232Z,43.60
2019-05-09T07:42:47.922Z,43.70
2019-05-09T07:45:17.845Z,43.90
2019-05-09T07:47:47.794Z,43.50
2019-05-09T07:50:18.903Z,43.70
2019-05-09T07:52:47.676Z,43.70
2019-05-09T07:55:18.044Z,43.40
2019-05-09T07:57:54.668Z,43.00
2019-05-09T08:00:19.769Z,43.10
2019-05-09T08:02:49.751Z,43.30
2019-05-09T08:05:21.445Z,43.50
2019-05-09T08:07:49.913Z,43.50
2019-05-09T08:10:18.324Z,43.00
2019-05-09T08:12:48.016Z,43.20
2019-05-09T08:15:19.810Z,43.00
2019-05-09T08:17:48.756Z,43.50
2019-05-09T08:20:17.511Z,43.70
2019-05-09T08:22:52.303Z,43.20
2019-05-09T08:25:18.188Z,43.10
2019-05-09T08:27:48.102Z,42.70
2019-05-09T08:30:17.941Z,42.50
2019-05-09T08:32:48.210Z,42.30
2019-05-09T08:35:18.278Z,42.50
2019-05-09T08:37:47.745Z,42.50
2019-05-09T08:40:18.353Z,42.50
2019-05-09T08:42:48.089Z,42.60
2019-05-09T08:45:27.359Z,42.10
2019-05-09T08:47:48.357Z,40.90
2019-05-09T08:50:24.041Z,40.50
2019-05-09T08:52:52.419Z,40.60
2019-05-09T08:55:20.813Z,40.30
2019-05-09T08:57:49.229Z,41.30
2019-05-09T09:00:18.921Z,40.70
2019-05-09T09:02:48.248Z,40.70
2019-05-09T09:05:18.745Z,40.70
2019-05-09T09:07:48.725Z,39.90
2019-05-09T09:10:18.614Z,40.00
2019-05-09T09:12:47.739Z,39.70
2019-05-09T09:15:18.009Z,39.90
2019-05-09T09:17:48.888Z,39.30
2019-05-09T09:20:18.177Z,40.10
2019-05-09T09:22:47.985Z,39.70
2019-05-09T09:25:18.451Z,39.70
2019-05-09T09:27:50.778Z,39.50
2019-05-09T09:30:24.138Z,39.20
2019-05-09T09:32:47.951Z,39.70
2019-05-09T09:35:18.512Z,39.70
2019-05-09T09:37:51.869Z,38.90
2019-05-09T09:40:17.721Z,39.40
2019-05-09T09:42:48.854Z,39.50
2019-05-09T09:45:18.342Z,39.30
2019-05-09T09:47:48.293Z,38.70
2019-05-09T09:50:17.721Z,38.80
2019-05-09T09:52:48.908Z,38.70
2019-05-09T09:55:18.475Z,38.90
2019-05-09T09:57:48.473Z,39.40
2019-05-09T10:00:26.393Z,39.00
2019-05-09T10:02:54.831Z,38.20
2019-05-09T10:05:23.204Z,38.60
2019-05-09T10:07:51.670Z,39.10
2019-05-09T10:10:33.929Z,39.10
2019-05-09T10:13:04.036Z,39.40
2019-05-09T10:15:52.229Z,39.50
2019-05-09T10:18:38.108Z,39.20
2019-05-09T10:21:08.374Z,38.60
2019-05-09T10:23:37.823Z,39.50
2019-05-09T10:26:08.532Z,39.40
2019-05-09T10:28:38.013Z,38.70
2019-05-09T10:31:06.496Z,39.30
2019-05-09T10:33:37.346Z,38.10
2019-05-09T10:36:05.166Z,38.70
2019-05-09T10:38:33.686Z,37.90
2019-05-09T10:41:02.349Z,36.90
2019-05-09T10:43:38.418Z,37.20
2019-05-09T10:46:20.008Z,37.30
2019-05-09T10:48:53.095Z,36.10
2019-05-09T10:51:21.525Z,36.50
2019-05-09T10:53:49.974Z,36.70
2019-05-09T10:56:18.969Z,35.60
2019-05-09T10:58:48.200Z,35.30
2019-05-09T11:01:18.450Z,35.10
2019-05-09T11:03:48.222Z,35.80
2019-05-09T11:06:18.438Z,35.70
2019-05-09T11:08:47.784Z,35.40
2019-05-09T11:11:18.318Z,35.70
2019-05-09T11:13:48.274Z,36.10
2019-05-09T11:16:18.284Z,35.00
2019-05-09T11:18:48.205Z,35.10
2019-05-09T11:21:19.194Z,34.90
2019-05-09T11:23:48.801Z,35.20
2019-05-09T11:26:17.871Z,35.20
2019-05-09T11:28:46.653Z,35.20
2019-05-09T11:31:17.916Z,35.60
2019-05-09T11:33:45.113Z,35.20
2019-05-09T11:36:14.294Z,34.60
2019-05-09T11:38:44.212Z,34.70
2019-05-09T11:41:18.876Z,35.00
2019-05-09T11:43:48.287Z,34.50
2019-05-09T11:46:17.723Z,34.30
2019-05-09T11:48:45.665Z,34.30
2019-05-09T11:51:14.058Z,35.10
2019-05-09T11:53:42.441Z,35.00
2019-05-09T11:56:10.833Z,35.10
2019-05-09T11:58:39.242Z,34.30
2019-05-09T12:01:08.278Z,35.60
2019-05-09T12:03:38.879Z,34.60
2019-05-09T12:06:08.040Z,34.40
2019-05-09T12:08:38.717Z,34.50
2019-05-09T12:11:08.445Z,34.60
2019-05-09T12:13:38.043Z,34.80
2019-05-09T12:16:06.539Z,34.70
2019-05-09T12:18:34.925Z,34.50
2019-05-09T12:21:03.338Z,34.90
2019-05-09T12:23:31.717Z,34.70
2019-05-09T12:26:00.096Z,34.50
2019-05-09T12:28:28.509Z,33.60
2019-05-09T12:30:56.880Z,34.50
2019-05-09T12:33:25.282Z,34.50
2019-05-09T12:35:53.720Z,34.70
2019-05-09T12:38:22.097Z,35.00
2019-05-09T12:40:50.499Z,34.70
2019-05-09T12:43:18.900Z,35.20
2019-05-09T12:45:47.850Z,35.10
2019-05-09T12:48:19.251Z,35.10
2019-05-09T12:50:48.681Z,34.90
2019-05-09T12:53:18.946Z,35.00
2019-05-09T12:55:47.550Z,35.20
2019-05-09T12:58:28.094Z,35.60
2019-05-09T13:00:58.452Z,36.60
2019-05-09T13:03:27.997Z,36.20
2019-05-09T13:05:57.477Z,36.50
2019-05-09T13:08:27.894Z,36.30
2019-05-09T13:10:58.163Z,36.50
2019-05-09T13:13:30.242Z,36.90
2019-05-09T13:15:58.268Z,37.30
2019-05-09T13:18:29.724Z,37.40
2019-05-09T13:20:58.233Z,37.70
2019-05-09T13:23:28.894Z,37.90
2019-05-09T13:25:58.552Z,38.10
2019-05-09T13:28:26.733Z,38.90
2019-05-09T13:30:55.126Z,40.20
2019-05-09T13:33:23.512Z,40.50
2019-05-09T13:35:51.934Z,41.20
2019-05-09T13:38:20.313Z,41.00
2019-05-09T13:40:53.756Z,41.40
2019-05-09T13:43:19.116Z,40.90
2019-05-09T13:45:47.641Z,41.60
2019-05-09T13:48:28.095Z,41.40
2019-05-09T13:50:46.073Z,42.00
2019-05-09T13:53:14.466Z,42.00
2019-05-09T13:55:44.134Z,41.60
2019-05-09T13:58:12.618Z,41.30
2019-05-09T14:00:55.897Z,41.50
2019-05-09T14:03:11.015Z,41.20
2019-05-09T14:05:39.401Z,40.90
2019-05-09T14:08:11.416Z,41.40
2019-05-09T14:10:38.844Z,42.40
2019-05-09T14:13:13.416Z,41.90
2019-05-09T14:15:37.422Z,42.20
2019-05-09T14:18:08.143Z,42.80
2019-05-09T14:20:37.788Z,43.40
2019-05-09T14:23:11.179Z,43.20
2019-05-09T14:25:38.108Z,43.40
2019-05-09T14:28:08.343Z,43.50
2019-05-09T14:30:36.079Z,43.90
2019-05-09T14:33:04.480Z,44.00
2019-05-09T14:35:32.883Z,43.80
2019-05-09T14:38:01.260Z,44.10
2019-05-09T14:40:29.693Z,44.10
2019-05-09T14:42:58.098Z,44.70
2019-05-09T14:45:28.008Z,45.40
2019-05-09T14:47:58.603Z,45.00
2019-05-09T14:50:28.511Z,45.10
2019-05-09T14:52:58.442Z,45.60
2019-05-09T14:55:28.521Z,45.90
2019-05-09T14:57:57.848Z,45.70
2019-05-09T15:00:26.403Z,45.80
2019-05-09T15:02:54.797Z,45.90
2019-05-09T15:05:23.171Z,46.70
2019-05-09T15:07:53.792Z,46.80
2019-05-09T15:10:21.591Z,46.60
2019-05-09T15:12:50.015Z,46.70
2019-05-09T15:15:18.647Z,46.90
2019-05-09T15:17:49.395Z,46.90
2019-05-09T15:20:17.999Z,46.00
2019-05-09T15:22:47.889Z,46.50
2019-05-09T15:25:19.208Z,46.40
2019-05-09T15:27:47.745Z,46.40
2019-05-09T15:30:18.471Z,47.10
2019-05-09T15:32:47.421Z,47.10
2019-05-09T15:35:18.133Z,46.80
2019-05-09T15:37:48.094Z,46.80
2019-05-09T15:40:17.707Z,47.00
2019-05-09T15:42:47.936Z,47.10
2019-05-09T15:45:18.241Z,47.10
2019-05-09T15:47:48.258Z,47.00
2019-05-09T15:50:22.494Z,47.10
2019-05-09T15:52:46.537Z,47.30
2019-05-09T15:55:17.469Z,46.50
2019-05-09T15:57:44.968Z,47.60
2019-05-09T16:00:15.339Z,47.90
2019-05-09T16:02:43.711Z,49.70
2019-05-09T16:05:12.099Z,49.50
2019-05-09T16:07:40.517Z,50.20
2019-05-09T16:10:08.937Z,51.40
2019-05-09T16:12:48.760Z,52.80
2019-05-09T16:15:18.335Z,52.20
2019-05-09T16:17:48.402Z,52.90
2019-05-09T16:20:22.929Z,52.80
2019-05-09T16:22:48.817Z,52.00
2019-05-09T16:25:18.839Z,51.80
2019-05-09T16:27:58.696Z,53.10
2019-05-09T16:30:27.540Z,52.10
2019-05-09T16:32:58.455Z,50.70
2019-05-09T16:35:28.582Z,51.20
2019-05-09T16:38:05.955Z,51.20
2019-05-09T16:40:27.940Z,50.60
2019-05-09T16:42:58.127Z,50.20
2019-05-09T16:45:28.529Z,50.80
2019-05-09T16:47:57.549Z,50.50
2019-05-09T16:50:29.455Z,50.50
2019-05-09T16:52:58.439Z,50.80
2019-05-09T16:55:31.192Z,51.20
2019-05-09T16:57:58.709Z,51.50
2019-05-09T17:00:32.925Z,51.20
2019-05-09T17:03:01.357Z,50.90
2019-05-09T17:05:29.725Z,51.10
2019-05-09T17:07:58.425Z,51.50
2019-05-09T17:10:26.877Z,52.10
2019-05-09T17:12:55.231Z,51.70
2019-05-09T17:15:24.685Z,51.60
2019-05-09T17:17:53.131Z,52.30
2019-05-09T17:20:27.763Z,52.20
2019-05-09T17:23:14.419Z,52.70
2019-05-09T17:25:39.877Z,53.70
2019-05-09T17:28:08.241Z,53.40
2019-05-09T17:30:38.383Z,54.00
2019-05-09T17:33:07.967Z,54.20
2019-05-09T17:35:38.819Z,54.40
2019-05-09T17:38:08.608Z,54.70
2019-05-09T17:40:39.000Z,54.30
2019-05-09T17:43:08.258Z,55.00
2019-05-09T17:45:41.802Z,54.90
2019-05-09T17:48:08.582Z,55.40
2019-05-09T17:50:38.414Z,55.00
2019-05-09T17:53:08.651Z,54.00
2019-05-09T17:55:38.125Z,54.90
2019-05-09T17:58:08.693Z,54.70
2019-05-09T18:00:38.020Z,55.00
2019-05-09T18:03:06.714Z,54.40
2019-05-09T18:05:35.984Z,54.60
2019-05-09T18:08:05.295Z,54.50
2019-05-09T18:10:33.685Z,54.60
2019-05-09T18:13:02.162Z,54.70
2019-05-09T18:15:30.545Z,54.00
2019-05-09T18:18:00.744Z,54.00
2019-05-09T18:20:29.179Z,53.50
2019-05-09T18:22:58.621Z,54.20
2019-05-09T18:25:27.123Z,54.10
2019-05-09T18:27:57.449Z,54.20
2019-05-09T18:30:27.771Z,54.00
2019-05-09T18:33:03.291Z,53.40
2019-05-09T18:35:32.951Z,53.90
2019-05-09T18:38:01.407Z,53.50
2019-05-09T18:40:29.879Z,53.40
2019-05-09T18:42:58.457Z,53.50
2019-05-09T18:45:28.258Z,53.50
2019-05-09T18:47:58.053Z,54.00
2019-05-09T18:50:26.684Z,54.40
2019-05-09T18:52:55.075Z,54.00
2019-05-09T18:55:23.600Z,54.00
2019-05-09T18:57:53.617Z,54.10
2019-05-09T19:00:22.006Z,54.00
2019-05-09T19:02:50.672Z,54.20
2019-05-09T19:05:19.859Z,54.80
2019-05-09T19:07:48.235Z,54.50
2019-05-09T19:10:16.626Z,54.20
2019-05-09T19:12:45.071Z,54.40
2019-05-09T19:15:31.810Z,54.40
2019-05-09T19:18:07.722Z,54.80
2019-05-09T19:20:49.885Z,54.50
2019-05-09T19:23:18.289Z,54.70
2019-05-09T19:25:46.757Z,54.90
2019-05-09T19:28:15.175Z,53.80
2019-05-09T19:30:43.661Z,54.70
2019-05-09T19:33:12.034Z,54.70
2019-05-09T19:35:40.440Z,54.70
2019-05-09T19:38:08.828Z,54.50
2019-05-09T19:40:37.252Z,54.50
2019-05-09T19:43:05.681Z,54.70
2019-05-09T19:45:34.055Z,54.30
2019-05-09T19:48:02.432Z,54.20
2019-05-09T19:50:30.845Z,54.30
2019-05-09T19:52:59.223Z,54.50
2019-05-09T19:55:27.616Z,54.50
2019-05-09T19:57:56.014Z,55.40
2019-05-09T20:00:24.409Z,54.70
2019-05-09T20:02:52.850Z,55.20
2019-05-09T20:05:21.287Z,54.40
2019-05-09T20:07:49.719Z,54.50
2019-05-09T20:10:20.027Z,54.40
2019-05-09T20:12:50.207Z,54.40
2019-05-09T20:15:20.233Z,54.30
2019-05-09T20:17:48.747Z,53.90
2019-05-09T20:20:17.140Z,54.40
2019-05-09T20:22:53.042Z,54.60
2019-05-09T20:25:15.803Z,54.70
2019-05-09T20:27:44.397Z,54.50
2019-05-09T20:30:12.817Z,54.30
2019-05-09T20:32:41.165Z,54.30
2019-05-09T20:35:09.566Z,54.30
2019-05-09T20:37:38.132Z,54.10
2019-05-09T20:40:07.471Z,54.20
2019-05-09T20:42:36.084Z,54.30
2019-05-09T20:45:05.802Z,54.10
2019-05-09T20:47:34.363Z,54.00
2019-05-09T20:50:03.152Z,53.90
2019-05-09T20:52:31.650Z,54.10
2019-05-09T20:55:00.237Z,54.10
2019-05-09T20:57:28.813Z,54.40
2019-05-09T20:59:57.446Z,54.70
2019-05-09T21:02:26.007Z,55.30
2019-05-09T21:04:54.615Z,56.10
2019-05-09T21:07:23.225Z,56.40
2019-05-09T21:09:51.792Z,56.40
2019-05-09T21:12:20.368Z,56.60
2019-05-09T21:14:48.948Z,56.00
2019-05-09T21:17:17.554Z,56.50
2019-05-09T21:19:46.102Z,56.20
2019-05-09T21:22:22.250Z,56.50
2019-05-09T21:24:52.291Z,56.70
2019-05-09T21:27:20.982Z,55.90
2019-05-09T21:29:49.551Z,55.70
2019-05-09T21:32:18.121Z,56.00
2019-05-09T21:34:46.552Z,55.80
2019-05-09T21:37:15.006Z,56.20
2019-05-09T21:39:43.391Z,56.80
2019-05-09T21:42:11.795Z,56.60
2019-05-09T21:44:40.197Z,56.90
2019-05-09T21:47:08.604Z,57.20
2019-05-09T21:49:41.512Z,57.20
2019-05-09T21:52:12.062Z,56.90
2019-05-09T21:54:42.219Z,56.70
2019-05-09T21:57:10.644Z,56.60
2019-05-09T21:59:39.147Z,56.30
2019-05-09T22:02:07.572Z,56.20
2019-05-09T22:04:35.937Z,56.60
2019-05-09T22:07:04.365Z,56.70
2019-05-09T22:09:32.765Z,56.40
2019-05-09T22:12:01.151Z,56.20
2019-05-09T22:14:30.651Z,56.20
2019-05-09T22:17:00.691Z,56.40
2019-05-09T22:19:29.076Z,56.10
2019-05-09T22:21:57.501Z,55.90
2019-05-09T22:24:25.902Z,56.10
2019-05-09T22:26:54.275Z,56.40
2019-05-09T22:29:22.711Z,56.20
2019-05-09T22:31:51.163Z,56.20
2019-05-09T22:34:19.557Z,56.50
2019-05-09T22:36:47.953Z,56.20
2019-05-09T22:39:16.345Z,56.40
2019-05-09T22:41:44.743Z,56.40
2019-05-09T22:44:13.157Z,56.60
2019-05-09T22:46:41.539Z,56.60
2019-05-09T22:49:09.947Z,56.60
2019-05-09T22:51:38.345Z,56.80
2019-05-09T22:54:12.836Z,56.90
2019-05-09T22:56:36.769Z,57.20
2019-05-09T22:59:05.279Z,57.50
2019-05-09T23:01:33.671Z,57.70
2019-05-09T23:04:02.057Z,57.70
2019-05-09T23:06:30.474Z,57.70
2019-05-09T23:09:00.564Z,57.40
2019-05-09T23:11:28.939Z,57.50
2019-05-09T23:13:57.340Z,57.40
2019-05-09T23:16:27.362Z,57.40
2019-05-09T23:18:56.171Z,57.50
2019-05-09T23:21:26.242Z,57.60
2019-05-09T23:24:02.413Z,57.30
2019-05-09T23:26:30.895Z,58.10
2019-05-09T23:28:59.295Z,57.80
2019-05-09T23:31:29.315Z,58.10
2019-05-09T23:33:57.743Z,58.40
2019-05-09T23:36:26.144Z,58.80
2019-05-09T23:39:12.379Z,58.90
2019-05-09T23:41:40.741Z,59.00
2019-05-09T23:44:09.125Z,59.10
2019-05-09T23:46:37.572Z,59.20
2019-05-09T23:49:05.959Z,59.20
2019-05-09T23:51:47.849Z,59.30
2019-05-09T23:54:45.798Z,59.50
2019-05-09T23:57:24.585Z,59.80
